createdAt,value
2022-12-04T00:01:23.273Z,99.60
2022-12-04T00:03:58.285Z,93.55
2022-12-04T00:06:26.147Z,96.00
2022-12-04T00:08:53.433Z,94.68
2022-12-04T00:11:23.840Z,100.70
2022-12-04T00:13:51.324Z,93.43
2022-12-04T00:16:21.161Z,87.43
2022-12-04T00:18:48.141Z,89.32
2022-12-04T00:21:16.292Z,90.88
2022-12-04T00:23:44.652Z,91.88
2022-12-04T00:26:17.939Z,95.22
2022-12-04T00:28:44.997Z,89.80
2022-12-04T00:31:15.556Z,97.63
2022-12-04T00:33:42.809Z,92.72
2022-12-04T00:36:12.250Z,99.32
2022-12-04T00:38:40.166Z,96.20
2022-12-04T00:41:14.825Z,100.93
2022-12-04T00:43:42.081Z,98.15
2022-12-04T00:46:09.576Z,98.45
2022-12-04T00:48:36.584Z,96.30
2022-12-04T00:51:08.958Z,102.88
2022-12-04T00:53:36.146Z,99.03
2022-12-04T00:56:09.433Z,103.05
2022-12-04T00:58:36.709Z,106.18
2022-12-04T01:01:13.329Z,101.82
2022-12-04T01:03:40.708Z,97.60
2022-12-04T01:06:08.217Z,99.38
2022-12-04T01:08:35.012Z,103.00
2022-12-04T01:11:06.918Z,98.63
2022-12-04T01:13:33.733Z,110.07
2022-12-04T01:16:00.454Z,102.15
2022-12-04T01:18:27.397Z,99.45
2022-12-04T01:20:54.220Z,101.90
2022-12-04T01:23:21.345Z,94.32
2022-12-04T01:25:57.576Z,107.03
2022-12-04T01:28:25.491Z,103.03
2022-12-04T01:31:02.788Z,98.95
2022-12-04T01:33:30.600Z,100.18
2022-12-04T01:35:58.913Z,96.63
2022-12-04T01:38:26.884Z,99.93
2022-12-04T01:40:54.602Z,100.40
2022-12-04T01:43:22.348Z,104.20
2022-12-04T01:45:52.870Z,96.07
2022-12-04T01:48:26.596Z,89.32
2022-12-04T01:50:59.099Z,92.15
2022-12-04T01:53:26.759Z,86.65
2022-12-04T01:55:53.918Z,88.75
2022-12-04T01:58:26.964Z,88.18
2022-12-04T02:00:58.552Z,85.55
2022-12-04T02:03:25.925Z,92.40
2022-12-04T02:05:52.598Z,97.50
2022-12-04T02:08:19.453Z,79.32
2022-12-04T02:11:03.606Z,75.28
2022-12-04T02:13:40.983Z,75.82
2022-12-04T02:16:24.646Z,74.60
2022-12-04T02:19:13.121Z,80.25
2022-12-04T02:21:45.775Z,72.85
2022-12-04T02:24:50.034Z,66.93
2022-12-04T02:27:39.062Z,73.00
2022-12-04T02:30:13.437Z,73.50
2022-12-04T02:33:03.385Z,72.45
2022-12-04T02:35:42.806Z,75.70
2022-12-04T02:38:23.541Z,76.45
2022-12-04T02:40:55.660Z,78.57
2022-12-04T02:43:46.949Z,70.75
2022-12-04T02:46:32.817Z,76.25
2022-12-04T02:49:03.415Z,81.80
2022-12-04T02:51:34.663Z,85.65
2022-12-04T02:54:19.730Z,81.38
2022-12-04T02:56:50.465Z,80.25
2022-12-04T02:59:23.448Z,79.00
2022-12-04T03:01:55.484Z,77.68
2022-12-04T03:04:26.067Z,82.32
2022-12-04T03:06:59.612Z,87.75
2022-12-04T03:09:44.508Z,84.55
2022-12-04T03:12:19.869Z,78.40
2022-12-04T03:15:01.508Z,76.05
2022-12-04T03:17:38.775Z,84.40
2022-12-04T03:20:11.099Z,76.32
2022-12-04T03:22:42.360Z,77.25
2022-12-04T03:25:09.824Z,72.45
2022-12-04T03:28:05.292Z,73.60
2022-12-04T03:30:39.651Z,77.10
2022-12-04T03:33:21.609Z,69.03
2022-12-04T03:36:08.747Z,75.65
2022-12-04T03:38:51.757Z,71.10
2022-12-04T03:41:48.045Z,69.38
2022-12-04T03:44:33.833Z,75.85
2022-12-04T03:47:30.054Z,82.38
2022-12-04T03:50:12.722Z,79.25
2022-12-04T03:52:45.625Z,81.00
2022-12-04T03:55:21.434Z,98.53
2022-12-04T03:57:50.365Z,83.28
2022-12-04T04:00:19.471Z,80.65
2022-12-04T04:02:55.929Z,77.63
2022-12-04T04:05:26.848Z,78.18
2022-12-04T04:08:18.712Z,77.65
2022-12-04T04:10:45.791Z,75.28
2022-12-04T04:13:34.120Z,70.85
2022-12-04T04:16:23.505Z,80.53
2022-12-04T04:19:10.966Z,77.45
2022-12-04T04:21:58.825Z,81.15
2022-12-04T04:24:36.204Z,78.13
2022-12-04T04:27:03.737Z,77.68
2022-12-04T04:29:30.592Z,77.15
2022-12-04T04:32:11.300Z,76.85
2022-12-04T04:34:56.305Z,77.72
2022-12-04T04:37:41.295Z,86.97
2022-12-04T04:40:22.164Z,83.25
2022-12-04T04:42:57.016Z,75.03
2022-12-04T04:45:32.226Z,81.25
2022-12-04T04:48:06.717Z,80.13
2022-12-04T04:50:34.956Z,78.45
2022-12-04T04:53:05.463Z,78.85
2022-12-04T04:55:34.924Z,75.68
2022-12-04T04:58:13.509Z,80.03
2022-12-04T05:00:47.355Z,82.70
2022-12-04T05:03:14.178Z,90.90
2022-12-04T05:05:40.903Z,83.82
2022-12-04T05:08:07.702Z,80.65
2022-12-04T05:10:34.488Z,79.47
2022-12-04T05:13:01.186Z,73.78
2022-12-04T05:15:27.876Z,68.82
2022-12-04T05:17:54.876Z,77.72
2022-12-04T05:20:21.554Z,69.53
2022-12-04T05:22:48.225Z,65.47
2022-12-04T05:25:14.918Z,69.72
2022-12-04T05:27:41.663Z,65.65
2022-12-04T05:30:10.449Z,68.10
2022-12-04T05:32:37.187Z,75.10
2022-12-04T05:35:10.577Z,66.88
2022-12-04T05:37:40.176Z,73.90
2022-12-04T05:40:10.162Z,78.75
2022-12-04T05:45:03.841Z,66.30
2022-12-04T05:47:30.543Z,63.38
2022-12-04T05:49:58.235Z,70.43
2022-12-04T05:52:25.242Z,69.18
2022-12-04T05:54:51.864Z,69.47
2022-12-04T05:57:18.533Z,68.32
2022-12-04T05:59:45.207Z,65.60
2022-12-04T06:02:11.941Z,73.97
2022-12-04T06:04:38.690Z,71.03
2022-12-04T06:07:05.404Z,67.80
2022-12-04T06:09:32.031Z,74.13
2022-12-04T06:11:59.085Z,74.95
2022-12-04T06:14:25.911Z,66.25
2022-12-04T06:16:52.693Z,62.90
2022-12-04T06:19:21.489Z,67.28
2022-12-04T06:21:51.393Z,75.72
2022-12-04T06:24:22.005Z,68.38
2022-12-04T06:27:18.677Z,68.57
2022-12-04T06:29:36.269Z,74.75
2022-12-04T06:32:03.180Z,77.15
2022-12-04T06:34:29.948Z,74.45
2022-12-04T06:36:56.702Z,65.68
2022-12-04T06:39:23.456Z,61.22
2022-12-04T06:41:50.200Z,68.53
2022-12-04T06:44:16.874Z,62.25
2022-12-04T06:46:47.151Z,69.85
2022-12-04T06:49:14.389Z,66.10
2022-12-04T06:51:41.174Z,65.88
2022-12-04T06:54:09.475Z,69.25
2022-12-04T06:56:36.334Z,66.63
2022-12-04T06:59:04.430Z,68.55
2022-12-04T07:01:33.938Z,60.75
2022-12-04T07:04:03.884Z,62.72
2022-12-04T07:06:36.561Z,64.68
2022-12-04T07:09:16.944Z,53.92
2022-12-04T07:11:44.706Z,63.17
2022-12-04T07:14:13.206Z,60.05
2022-12-04T07:16:42.248Z,54.15
2022-12-04T07:19:11.096Z,49.38
2022-12-04T07:21:37.921Z,47.95
2022-12-04T07:24:05.115Z,50.33
2022-12-04T07:26:31.913Z,46.75
2022-12-04T07:28:59.462Z,46.95
2022-12-04T07:31:27.899Z,41.58
2022-12-04T07:33:55.231Z,45.97
2022-12-04T07:36:23.137Z,45.70
2022-12-04T07:38:50.840Z,45.97
2022-12-04T07:41:18.913Z,44.47
2022-12-04T07:43:46.047Z,43.00
2022-12-04T07:46:17.784Z,43.13
2022-12-04T07:48:45.068Z,40.42
2022-12-04T07:51:14.913Z,44.40
2022-12-04T07:53:42.134Z,44.47
2022-12-04T07:56:11.070Z,43.58
2022-12-04T07:58:38.300Z,43.08
2022-12-04T08:01:17.468Z,38.80
2022-12-04T08:03:48.325Z,38.42
2022-12-04T08:06:18.145Z,40.90
2022-12-04T08:08:45.299Z,40.55
2022-12-04T08:11:15.308Z,40.65
2022-12-04T08:13:42.234Z,37.83
2022-12-04T08:16:10.310Z,38.97
2022-12-04T08:18:37.458Z,36.72
2022-12-04T08:21:11.584Z,38.28
2022-12-04T08:23:40.525Z,40.90
2022-12-04T08:26:07.980Z,39.00
2022-12-04T08:28:35.164Z,36.70
2022-12-04T08:31:03.899Z,35.10
2022-12-04T08:33:30.745Z,34.80
2022-12-04T08:35:57.647Z,38.20
2022-12-04T08:38:24.432Z,33.15
2022-12-04T08:40:51.226Z,32.22
2022-12-04T08:43:18.094Z,32.17
2022-12-04T08:45:44.890Z,29.40
2022-12-04T08:48:11.546Z,32.70
2022-12-04T08:50:44.820Z,30.10
2022-12-04T08:53:11.513Z,30.63
2022-12-04T08:55:38.135Z,34.08
2022-12-04T08:58:04.826Z,32.17
2022-12-04T09:00:31.790Z,30.13
2022-12-04T09:02:58.539Z,28.13
2022-12-04T09:05:25.221Z,30.02
2022-12-04T09:07:52.012Z,27.23
2022-12-04T09:10:18.878Z,27.85
2022-12-04T09:12:45.546Z,28.83
2022-12-04T09:15:12.597Z,29.17
2022-12-04T09:17:39.402Z,25.02
2022-12-04T09:20:08.158Z,27.50
2022-12-04T09:23:01.757Z,26.67
2022-12-04T09:25:22.940Z,27.23
2022-12-04T09:27:49.691Z,30.10
2022-12-04T09:30:16.380Z,29.17
2022-12-04T09:32:43.077Z,27.15
2022-12-04T09:35:10.026Z,26.60
2022-12-04T09:37:36.844Z,25.60
2022-12-04T09:40:07.556Z,26.90
2022-12-04T09:42:43.644Z,26.75
2022-12-04T09:45:25.375Z,24.75
2022-12-04T09:48:01.455Z,24.25
2022-12-04T09:50:45.322Z,24.88
2022-12-04T09:53:16.048Z,25.05
2022-12-04T09:55:47.499Z,21.38
2022-12-04T09:58:21.282Z,24.00
2022-12-04T10:00:51.312Z,21.90
2022-12-04T10:03:21.165Z,21.48
2022-12-04T10:06:16.382Z,22.05
2022-12-04T10:08:46.663Z,19.67
2022-12-04T10:11:40.441Z,21.95
2022-12-04T10:14:26.125Z,20.98
2022-12-04T10:17:27.844Z,19.83
2022-12-04T10:20:13.856Z,19.90
2022-12-04T10:23:13.418Z,22.02
2022-12-04T10:25:42.174Z,21.20
2022-12-04T10:28:26.427Z,19.48
2022-12-04T10:30:55.670Z,20.02
2022-12-04T10:33:45.736Z,20.25
2022-12-04T10:39:04.100Z,21.20
2022-12-04T10:44:00.160Z,17.00
2022-12-04T10:46:29.292Z,19.27
2022-12-04T10:48:59.913Z,17.63
2022-12-04T10:51:26.773Z,18.73
2022-12-04T10:53:55.738Z,16.52
2022-12-04T10:56:24.969Z,17.45
2022-12-04T10:59:01.835Z,14.40
2022-12-04T11:01:33.960Z,15.55
2022-12-04T11:04:09.342Z,16.30
2022-12-04T11:06:36.245Z,18.05
2022-12-04T11:09:03.753Z,15.52
2022-12-04T11:11:35.698Z,16.52
2022-12-04T11:14:06.961Z,17.10
2022-12-04T11:16:40.477Z,14.00
2022-12-04T11:19:22.377Z,13.85
2022-12-04T11:21:50.192Z,17.50
2022-12-04T11:24:29.396Z,14.48
2022-12-04T11:26:57.831Z,14.20
2022-12-04T11:29:42.183Z,12.93
2022-12-04T11:32:19.810Z,16.30
2022-12-04T11:34:46.719Z,15.73
2022-12-04T11:37:45.125Z,15.05
2022-12-04T11:40:18.871Z,16.60
2022-12-04T11:42:58.603Z,15.73
2022-12-04T11:45:25.253Z,13.38
2022-12-04T11:47:57.328Z,13.32
2022-12-04T11:50:54.699Z,15.57
2022-12-04T11:53:39.692Z,17.90
2022-12-04T11:56:19.931Z,14.43
2022-12-04T11:58:51.706Z,14.10
2022-12-04T12:01:27.228Z,15.43
2022-12-04T12:04:10.751Z,12.82
2022-12-04T12:06:58.955Z,14.43
2022-12-04T12:09:55.739Z,15.75
2022-12-04T12:12:38.205Z,16.17
2022-12-04T12:15:26.465Z,15.00
2022-12-04T12:18:08.711Z,13.70
2022-12-04T12:20:50.408Z,13.75
2022-12-04T12:23:31.040Z,15.05
2022-12-04T12:26:16.349Z,14.20
2022-12-04T12:28:49.258Z,13.70
2022-12-04T12:31:42.172Z,13.38
2022-12-04T12:34:14.489Z,12.32
2022-12-04T12:36:45.622Z,13.52
2022-12-04T12:39:29.552Z,12.80
2022-12-04T12:42:01.194Z,14.18
2022-12-04T12:44:43.149Z,16.33
2022-12-04T12:47:17.764Z,11.27
2022-12-04T12:50:10.593Z,12.23
2022-12-04T12:52:58.875Z,16.08
2022-12-04T12:55:39.838Z,13.55
2022-12-04T12:58:24.907Z,14.98
2022-12-04T13:01:16.531Z,15.25
2022-12-04T13:03:49.076Z,15.60
2022-12-04T13:06:25.101Z,17.73
2022-12-04T13:09:25.546Z,15.50
2022-12-04T13:11:58.715Z,17.02
2022-12-04T13:14:25.844Z,16.98
2022-12-04T13:16:59.738Z,17.70
2022-12-04T13:19:34.695Z,17.10
2022-12-04T13:22:10.661Z,17.60
2022-12-04T13:24:56.529Z,17.23
2022-12-04T13:27:37.975Z,20.88
2022-12-04T13:30:21.605Z,17.25
2022-12-04T13:32:48.356Z,16.83
2022-12-04T13:35:39.966Z,23.33
2022-12-04T13:38:15.659Z,19.27
2022-12-04T13:40:51.728Z,18.90
2022-12-04T13:43:24.556Z,19.38
2022-12-04T13:45:54.266Z,19.15
2022-12-04T13:48:36.991Z,22.88
2022-12-04T13:51:14.324Z,18.90
2022-12-04T13:53:43.508Z,18.85
2022-12-04T13:56:26.404Z,21.63
2022-12-04T13:59:25.424Z,21.92
2022-12-04T14:01:57.483Z,22.23
2022-12-04T14:04:25.651Z,20.98
2022-12-04T14:06:54.332Z,20.38
2022-12-04T14:09:53.480Z,22.20
2022-12-04T14:12:26.964Z,22.17
2022-12-04T14:15:00.574Z,20.00
2022-12-04T14:17:30.887Z,19.95
2022-12-04T14:20:07.318Z,20.98
2022-12-04T14:22:37.501Z,19.85
2022-12-04T14:25:29.146Z,21.23
2022-12-04T14:27:55.997Z,21.05
2022-12-04T14:30:31.370Z,23.02
2022-12-04T14:33:19.008Z,21.00
2022-12-04T14:36:02.778Z,22.83
2022-12-04T14:38:29.748Z,22.40
2022-12-04T14:40:58.193Z,25.98
2022-12-04T14:43:28.313Z,25.95
2022-12-04T14:48:58.281Z,24.25
2022-12-04T14:51:35.675Z,23.55
2022-12-04T14:54:17.721Z,26.63
2022-12-04T14:57:14.171Z,21.45
2022-12-04T14:59:53.599Z,24.95
2022-12-04T15:02:34.727Z,26.58
2022-12-04T15:05:02.727Z,25.02
2022-12-04T15:07:31.804Z,31.75
2022-12-04T15:10:19.428Z,27.60
2022-12-04T15:12:52.979Z,29.55
2022-12-04T15:15:26.101Z,26.75
2022-12-04T15:18:17.114Z,28.52
2022-12-04T15:20:43.833Z,31.35
2022-12-04T15:23:16.563Z,31.17
2022-12-04T15:25:51.708Z,27.80
2022-12-04T15:28:24.125Z,31.05
2022-12-04T15:30:52.732Z,28.50
2022-12-04T15:33:34.376Z,29.98
2022-12-04T15:36:05.586Z,31.00
2022-12-04T15:38:32.692Z,29.67
2022-12-04T15:41:00.834Z,27.15
2022-12-04T15:43:29.443Z,28.83
2022-12-04T15:45:57.123Z,26.55
2022-12-04T15:48:29.685Z,28.75
2022-12-04T15:51:03.639Z,28.25
2022-12-04T15:53:37.570Z,29.10
2022-12-04T15:56:08.524Z,30.55
2022-12-04T15:58:40.425Z,29.83
2022-12-04T16:01:10.701Z,28.80
2022-12-04T16:03:47.078Z,28.15
2022-12-04T16:06:24.172Z,29.77
2022-12-04T16:08:58.075Z,32.58
2022-12-04T16:11:30.766Z,27.67
2022-12-04T16:14:23.878Z,27.30
2022-12-04T16:16:52.850Z,31.02
2022-12-04T16:19:33.378Z,29.23
2022-12-04T16:22:03.602Z,29.90
2022-12-04T16:24:30.734Z,30.13
2022-12-04T16:27:00.245Z,30.88
2022-12-04T16:29:27.165Z,32.55
2022-12-04T16:31:57.170Z,31.75
2022-12-04T16:34:27.991Z,32.03
2022-12-04T16:36:54.627Z,34.08
2022-12-04T16:39:21.460Z,31.60
2022-12-04T16:41:48.209Z,32.92
2022-12-04T16:44:16.432Z,29.23
2022-12-04T16:46:43.648Z,30.05
2022-12-04T16:49:13.852Z,36.72
2022-12-04T16:51:49.643Z,32.22
2022-12-04T16:54:16.620Z,35.63
2022-12-04T16:56:46.438Z,32.47
2022-12-04T16:59:13.274Z,35.53
2022-12-04T17:01:46.545Z,32.45
2022-12-04T17:04:13.580Z,36.03
2022-12-04T17:06:40.653Z,32.97
2022-12-04T17:09:08.123Z,33.58
2022-12-04T17:11:34.806Z,37.13
2022-12-04T17:14:06.891Z,38.38
2022-12-04T17:16:38.483Z,37.05
2022-12-04T17:19:05.324Z,35.72
2022-12-04T17:21:32.098Z,35.47
2022-12-04T17:23:58.813Z,38.60
2022-12-04T17:26:26.305Z,36.13
2022-12-04T17:28:53.235Z,36.08
2022-12-04T17:31:22.789Z,36.42
2022-12-04T17:33:50.213Z,37.28
2022-12-04T17:36:25.845Z,37.03
2022-12-04T17:38:57.514Z,36.15
2022-12-04T17:41:24.256Z,31.80
2022-12-04T17:43:51.089Z,38.33
2022-12-04T17:46:21.861Z,34.05
2022-12-04T17:48:48.817Z,34.95
2022-12-04T17:51:22.816Z,38.90
2022-12-04T17:53:49.745Z,34.40
2022-12-04T17:56:19.285Z,36.78
2022-12-04T17:58:46.870Z,39.88
2022-12-04T18:01:16.904Z,37.60
2022-12-04T18:06:17.128Z,36.42
2022-12-04T18:08:49.846Z,38.45
2022-12-04T18:11:20.522Z,35.75
2022-12-04T18:13:49.445Z,40.90
2022-12-04T18:16:16.266Z,38.75
2022-12-04T18:18:46.611Z,37.38
2022-12-04T18:21:14.524Z,40.50
2022-12-04T18:23:45.664Z,42.53
2022-12-04T18:26:14.353Z,46.92
2022-12-04T18:28:42.057Z,39.53
2022-12-04T18:31:09.869Z,40.70
2022-12-04T18:33:39.120Z,40.47
2022-12-04T18:36:06.804Z,45.33
2022-12-04T18:38:33.645Z,42.92
2022-12-04T18:41:05.908Z,46.53
2022-12-04T18:43:37.916Z,49.20
2022-12-04T18:46:08.044Z,43.17
2022-12-04T18:48:36.022Z,44.03
2022-12-04T18:51:14.536Z,45.70
2022-12-04T18:53:41.441Z,41.95
2022-12-04T18:56:08.091Z,43.90
2022-12-04T18:58:34.799Z,42.28
2022-12-04T19:01:09.480Z,43.80
2022-12-04T19:03:37.034Z,42.75
2022-12-04T19:06:04.783Z,41.58
2022-12-04T19:08:34.297Z,46.80
2022-12-04T19:11:21.533Z,41.95
2022-12-04T19:13:48.259Z,46.92
2022-12-04T19:16:17.505Z,46.05
2022-12-04T19:18:47.705Z,40.72
2022-12-04T19:23:42.759Z,43.88
2022-12-04T19:26:09.527Z,43.40
2022-12-04T19:28:36.523Z,45.97
2022-12-04T19:31:03.643Z,40.83
2022-12-04T19:33:30.455Z,47.42
2022-12-04T19:36:03.216Z,44.72
2022-12-04T19:38:31.447Z,47.72
2022-12-04T19:41:22.953Z,46.40
2022-12-04T19:43:52.871Z,50.78
2022-12-04T19:46:26.230Z,51.88
2022-12-04T19:48:58.724Z,41.78
2022-12-04T19:51:26.035Z,41.72
2022-12-04T19:53:54.200Z,42.47
2022-12-04T19:56:24.505Z,50.00
2022-12-04T19:58:52.615Z,46.05
2022-12-04T20:01:24.083Z,45.47
2022-12-04T20:03:51.340Z,50.70
2022-12-04T20:06:20.723Z,47.88
2022-12-04T20:08:52.799Z,47.00
2022-12-04T20:11:19.611Z,42.00
2022-12-04T20:13:48.547Z,41.95
2022-12-04T20:16:18.096Z,40.90
2022-12-04T20:18:45.310Z,44.67
2022-12-04T20:21:12.989Z,38.88
2022-12-04T20:23:49.943Z,40.35
2022-12-04T20:26:26.054Z,38.33
2022-12-04T20:28:54.827Z,42.33
2022-12-04T20:31:41.760Z,38.78
2022-12-04T20:34:12.106Z,37.05
2022-12-04T20:36:41.773Z,39.38
2022-12-04T20:39:09.754Z,40.05
2022-12-04T20:41:36.716Z,35.78
2022-12-04T20:44:06.413Z,31.45
2022-12-04T20:46:38.320Z,36.08
2022-12-04T20:49:08.571Z,31.73
2022-12-04T20:51:37.840Z,35.78
2022-12-04T20:54:05.662Z,37.50
2022-12-04T20:56:37.236Z,36.28
2022-12-04T20:59:07.652Z,35.08
2022-12-04T21:01:35.472Z,35.08
2022-12-04T21:04:02.821Z,37.65
2022-12-04T21:06:38.122Z,35.03
2022-12-04T21:09:16.787Z,36.58
2022-12-04T21:11:49.360Z,32.90
2022-12-04T21:14:43.878Z,34.97
2022-12-04T21:17:16.629Z,34.03
2022-12-04T21:19:43.594Z,34.25
2022-12-04T21:22:10.279Z,34.88
2022-12-04T21:24:39.224Z,31.02
2022-12-04T21:27:09.820Z,36.92
2022-12-04T21:29:39.677Z,34.80
2022-12-04T21:32:07.242Z,32.75
2022-12-04T21:34:33.979Z,31.05
2022-12-04T21:37:00.863Z,29.98
2022-12-04T21:39:27.564Z,29.80
2022-12-04T21:42:26.606Z,29.80
2022-12-04T21:44:53.311Z,39.42
2022-12-04T21:47:20.497Z,27.23
2022-12-04T21:49:47.780Z,32.90
2022-12-04T21:52:18.581Z,33.33
2022-12-04T21:54:48.325Z,39.33
2022-12-04T21:57:15.019Z,33.63
2022-12-04T21:59:41.677Z,35.60
2022-12-04T22:02:10.018Z,34.83
2022-12-04T22:04:36.711Z,39.65
2022-12-04T22:07:03.545Z,32.72
2022-12-04T22:09:30.283Z,33.38
2022-12-04T22:11:56.940Z,32.42
2022-12-04T22:14:23.588Z,28.35
2022-12-04T22:16:51.892Z,28.15
2022-12-04T22:19:18.669Z,28.30
2022-12-04T22:21:45.491Z,27.25
2022-12-04T22:24:12.264Z,32.45
2022-12-04T22:26:39.144Z,30.67
2022-12-04T22:29:33.725Z,30.88
2022-12-04T22:31:52.944Z,33.05
2022-12-04T22:34:19.676Z,30.73
2022-12-04T22:36:48.851Z,32.53
2022-12-04T22:39:15.506Z,34.73
2022-12-04T22:41:42.185Z,32.63
2022-12-04T22:44:08.982Z,30.10
2022-12-04T22:46:35.702Z,29.27
2022-12-04T22:49:02.400Z,28.85
2022-12-04T22:51:29.236Z,26.20
2022-12-04T22:53:57.956Z,30.45
2022-12-04T22:56:30.689Z,26.38
2022-12-04T22:58:58.296Z,28.63
2022-12-04T23:01:27.856Z,24.98
2022-12-04T23:03:54.828Z,21.85
2022-12-04T23:06:23.433Z,27.70
2022-12-04T23:08:55.923Z,24.17
2022-12-04T23:11:23.868Z,23.25
2022-12-04T23:13:56.012Z,26.17
2022-12-04T23:16:24.383Z,27.02
2022-12-04T23:18:51.409Z,27.05
2022-12-04T23:21:20.116Z,31.58
2022-12-04T23:23:47.679Z,28.60
2022-12-04T23:26:17.843Z,27.08
2022-12-04T23:31:11.504Z,33.35
2022-12-04T23:33:39.365Z,30.73
2022-12-04T23:36:07.528Z,29.10
2022-12-04T23:38:35.750Z,29.05
2022-12-04T23:41:05.438Z,29.38
2022-12-04T23:43:32.691Z,31.25
2022-12-04T23:45:59.395Z,28.42
2022-12-04T23:48:26.901Z,31.35
2022-12-04T23:50:54.032Z,33.65
2022-12-04T23:53:21.158Z,36.30
2022-12-04T23:56:09.918Z,36.33
2022-12-04T23:58:37.530Z,35.28
